Pagina principale
METAR-TAF:

METAR-TAF

Aeroporti :

Aeroporto militare Lanvéoc-Poulmic

Lanvéoc, Francia

latitudine: 48-17N, longitudine: 004-26W, altezza: 87 m

Osservazione

Il bollettino è stato emesso 35 minuti fa, alle 22:30 UTC
Vento 7 kt da sud, variando fra sud/sud-est e sud-ovest
Temperature 14°C
Umidità 88%
Pressione 1020 hPa
Visibilità 10 km o più
Cielo coperto ad un'altezza di 600 ft

METAR: LFRL 162230Z AUTO 19007KT 160V220 9999 OVC006 14/12 Q1020

Ora: 01:05 (23:05 UTC)


TAF: mancante

Osservazioni e previsioni meteorologiche di più di 4000 aeroporti (messaggi METAR e TAF).

Le stazioni disponibili sono rappresentate dai dischi gialli e rossi sulla carta.

Puntare il mouse per vedere il nome della stazione.

Clicca sopra per visualizzare le osservazioni e previsioni meteorologiche.

Per cambiare la mappa : fare clic sui pulsanti verdi con una croce nera per ingrandire, il pulsante verde con un trattino per diminuire, o sulla freccia verde per le mappe adiacenti.


METAR-TAF: